sensor_id;sensor_type;location;lat;lon;timestamp;temperature;humidity
53844;DHT22;39744;53.314;5.710;2023-11-22T18:58:01;9.40;99.90
53844;DHT22;39744;53.314;5.710;2023-11-22T19:00:30;9.20;99.90
53844;DHT22;39744;53.314;5.710;2023-11-22T19:02:55;8.90;99.90
53844;DHT22;39744;53.314;5.710;2023-11-22T19:05:21;9.00;99.90
53844;DHT22;39744;53.314;5.710;2023-11-22T19:07:47;9.00;99.90
53844;DHT22;39744;53.314;5.710;2023-11-22T19:10:13;9.00;99.90
53844;DHT22;39744;53.314;5.710;2023-11-22T19:12:39;9.50;99.90
53844;DHT22;39744;53.314;5.710;2023-11-22T19:15:06;9.00;99.90
53844;DHT22;39744;53.314;5.710;2023-11-22T19:17:32;9.30;99.90
53844;DHT22;39744;53.314;5.710;2023-11-22T19:19:57;9.20;99.90
53844;DHT22;39744;53.314;5.710;2023-11-22T19:22:24;9.70;99.90
53844;DHT22;39744;53.314;5.710;2023-11-22T19:24:49;9.70;99.90
53844;DHT22;39744;53.314;5.710;2023-11-22T19:27:15;9.20;99.90
53844;DHT22;39744;53.314;5.710;2023-11-22T19:29:41;9.30;99.90
53844;DHT22;39744;53.314;5.710;2023-11-22T19:32:06;9.30;99.90
53844;DHT22;39744;53.314;5.710;2023-11-22T19:34:32;9.80;99.90
53844;DHT22;39744;53.314;5.710;2023-11-22T19:36:57;9.20;99.90
53844;DHT22;39744;53.314;5.710;2023-11-22T19:39:23;9.90;99.90
53844;DHT22;39744;53.314;5.710;2023-11-22T19:41:50;9.80;99.90
53844;DHT22;39744;53.314;5.710;2023-11-22T19:44:16;9.60;99.90
53844;DHT22;39744;53.314;5.710;2023-11-22T19:46:47;10.00;99.90
53844;DHT22;39744;53.314;5.710;2023-11-22T19:49:13;9.70;99.90
53844;DHT22;39744;53.314;5.710;2023-11-22T19:51:42;10.00;99.90
53844;DHT22;39744;53.314;5.710;2023-11-22T19:54:07;9.10;99.90
53844;DHT22;39744;53.314;5.710;2023-11-22T19:56:38;10.10;99.90
53844;DHT22;39744;53.314;5.710;2023-11-22T19:59:04;9.10;99.90
53844;DHT22;39744;53.314;5.710;2023-11-22T20:01:30;9.10;99.90
53844;DHT22;39744;53.314;5.710;2023-11-22T20:03:55;9.10;99.90
53844;DHT22;39744;53.314;5.710;2023-11-22T20:06:21;9.00;99.90
53844;DHT22;39744;53.314;5.710;2023-11-22T20:08:51;10.20;99.90
53844;DHT22;39744;53.314;5.710;2023-11-22T20:11:17;9.40;99.90
53844;DHT22;39744;53.314;5.710;2023-11-22T20:13:42;9.20;99.90
53844;DHT22;39744;53.314;5.710;2023-11-22T20:16:08;9.10;99.90
53844;DHT22;39744;53.314;5.710;2023-11-22T20:18:33;10.10;99.90
53844;DHT22;39744;53.314;5.710;2023-11-22T20:20:59;9.30;99.90
53844;DHT22;39744;53.314;5.710;2023-11-22T20:23:24;9.30;99.90
53844;DHT22;39744;53.314;5.710;2023-11-22T20:25:50;9.90;99.90
53844;DHT22;39744;53.314;5.710;2023-11-22T20:30:42;10.30;99.90
53844;DHT22;39744;53.314;5.710;2023-11-22T20:33:07;9.10;99.90
53844;DHT22;39744;53.314;5.710;2023-11-22T20:35:33;10.30;99.90
53844;DHT22;39744;53.314;5.710;2023-11-22T20:37:58;9.80;99.90
53844;DHT22;39744;53.314;5.710;2023-11-22T20:40:24;10.30;99.90
53844;DHT22;39744;53.314;5.710;2023-11-22T20:42:50;10.40;99.90
53844;DHT22;39744;53.314;5.710;2023-11-22T20:45:15;10.40;99.90
53844;DHT22;39744;53.314;5.710;2023-11-22T20:47:41;9.30;99.90
53844;DHT22;39744;53.314;5.710;2023-11-22T20:50:07;9.80;99.90
53844;DHT22;39744;53.314;5.710;2023-11-22T20:52:34;9.20;99.90
53844;DHT22;39744;53.314;5.710;2023-11-22T20:54:59;10.20;99.90
53844;DHT22;39744;53.314;5.710;2023-11-22T20:57:26;9.20;99.90
53844;DHT22;39744;53.314;5.710;2023-11-22T20:59:51;10.20;99.90
53844;DHT22;39744;53.314;5.710;2023-11-22T21:02:18;10.30;99.90
53844;DHT22;39744;53.314;5.710;2023-11-22T21:04:44;9.70;99.90
53844;DHT22;39744;53.314;5.710;2023-11-22T21:07:11;9.90;99.90
53844;DHT22;39744;53.314;5.710;2023-11-22T21:09:37;10.30;99.90
53844;DHT22;39744;53.314;5.710;2023-11-22T21:12:03;10.40;99.90
53844;DHT22;39744;53.314;5.710;2023-11-22T21:14:28;9.40;99.90
53844;DHT22;39744;53.314;5.710;2023-11-22T21:16:54;9.40;99.90
53844;DHT22;39744;53.314;5.710;2023-11-22T21:19:20;9.60;99.90
53844;DHT22;39744;53.314;5.710;2023-11-22T21:21:46;9.90;99.90
53844;DHT22;39744;53.314;5.710;2023-11-22T21:24:12;9.90;99.90
53844;DHT22;39744;53.314;5.710;2023-11-22T21:26:38;9.70;99.90
53844;DHT22;39744;53.314;5.710;2023-11-22T21:29:03;9.80;99.90
53844;DHT22;39744;53.314;5.710;2023-11-22T21:31:29;10.30;99.90
53844;DHT22;39744;53.314;5.710;2023-11-22T21:33:54;10.30;99.90
53844;DHT22;39744;53.314;5.710;2023-11-22T21:36:20;10.00;99.90
53844;DHT22;39744;53.314;5.710;2023-11-22T21:38:46;9.90;99.90
53844;DHT22;39744;53.314;5.710;2023-11-22T21:41:11;9.80;99.90
53844;DHT22;39744;53.314;5.710;2023-11-22T21:43:38;9.90;99.90
53844;DHT22;39744;53.314;5.710;2023-11-22T21:46:04;10.30;99.90
53844;DHT22;39744;53.314;5.710;2023-11-22T21:48:30;10.20;99.90
53844;DHT22;39744;53.314;5.710;2023-11-22T21:50:55;10.10;99.90
53844;DHT22;39744;53.314;5.710;2023-11-22T21:53:23;10.20;99.90
53844;DHT22;39744;53.314;5.710;2023-11-22T21:55:48;10.10;99.90
53844;DHT22;39744;53.314;5.710;2023-11-22T21:58:14;10.40;99.90
53844;DHT22;39744;53.314;5.710;2023-11-22T22:00:40;10.10;99.90
53844;DHT22;39744;53.314;5.710;2023-11-22T22:03:05;10.20;99.90
53844;DHT22;39744;53.314;5.710;2023-11-22T22:05:34;10.40;99.90
53844;DHT22;39744;53.314;5.710;2023-11-22T22:07:59;10.30;99.90
53844;DHT22;39744;53.314;5.710;2023-11-22T22:10:25;10.40;99.90
53844;DHT22;39744;53.314;5.710;2023-11-22T22:12:51;10.30;99.90
53844;DHT22;39744;53.314;5.710;2023-11-22T22:15:16;10.20;99.90
53844;DHT22;39744;53.314;5.710;2023-11-22T22:17:42;10.30;99.90
53844;DHT22;39744;53.314;5.710;2023-11-22T22:20:07;10.20;99.90
53844;DHT22;39744;53.314;5.710;2023-11-22T22:22:33;10.40;99.90
53844;DHT22;39744;53.314;5.710;2023-11-22T22:24:58;10.40;99.90
53844;DHT22;39744;53.314;5.710;2023-11-22T22:27:24;10.10;99.90
53844;DHT22;39744;53.314;5.710;2023-11-22T22:29:51;10.20;99.90
53844;DHT22;39744;53.314;5.710;2023-11-22T22:32:16;10.30;99.90
53844;DHT22;39744;53.314;5.710;2023-11-22T22:34:42;10.20;99.90
53844;DHT22;39744;53.314;5.710;2023-11-22T22:37:07;10.50;99.90
53844;DHT22;39744;53.314;5.710;2023-11-22T22:39:33;10.20;99.90
53844;DHT22;39744;53.314;5.710;2023-11-22T22:41:58;10.40;99.90
53844;DHT22;39744;53.314;5.710;2023-11-22T22:44:24;10.30;99.90
53844;DHT22;39744;53.314;5.710;2023-11-22T22:46:51;10.20;99.90
53844;DHT22;39744;53.314;5.710;2023-11-22T22:49:17;10.30;99.90
53844;DHT22;39744;53.314;5.710;2023-11-22T22:51:42;10.30;99.90
53844;DHT22;39744;53.314;5.710;2023-11-22T22:54:08;10.30;99.90
53844;DHT22;39744;53.314;5.710;2023-11-22T22:56:33;10.30;99.90
53844;DHT22;39744;53.314;5.710;2023-11-22T22:59:01;10.40;99.90
53844;DHT22;39744;53.314;5.710;2023-11-22T23:01:27;10.40;99.90
53844;DHT22;39744;53.314;5.710;2023-11-22T23:03:52;10.50;99.90
53844;DHT22;39744;53.314;5.710;2023-11-22T23:06:21;10.50;99.90
53844;DHT22;39744;53.314;5.710;2023-11-22T23:08:47;10.40;99.90
53844;DHT22;39744;53.314;5.710;2023-11-22T23:11:13;10.40;99.90
53844;DHT22;39744;53.314;5.710;2023-11-22T23:13:38;10.50;99.90
53844;DHT22;39744;53.314;5.710;2023-11-22T23:16:04;10.30;99.90
53844;DHT22;39744;53.314;5.710;2023-11-22T23:18:30;10.50;99.90
53844;DHT22;39744;53.314;5.710;2023-11-22T23:20:55;10.40;99.90
53844;DHT22;39744;53.314;5.710;2023-11-22T23:23:21;10.60;99.90
53844;DHT22;39744;53.314;5.710;2023-11-22T23:25:47;10.50;99.90
53844;DHT22;39744;53.314;5.710;2023-11-22T23:28:12;10.40;99.90
53844;DHT22;39744;53.314;5.710;2023-11-22T23:30:38;10.50;99.90
53844;DHT22;39744;53.314;5.710;2023-11-22T23:33:04;10.50;99.90
53844;DHT22;39744;53.314;5.710;2023-11-22T23:35:29;10.50;99.90
53844;DHT22;39744;53.314;5.710;2023-11-22T23:37:55;10.60;99.90
53844;DHT22;39744;53.314;5.710;2023-11-22T23:40:21;10.60;99.90
53844;DHT22;39744;53.314;5.710;2023-11-22T23:42:50;10.50;99.90
53844;DHT22;39744;53.314;5.710;2023-11-22T23:45:16;10.40;99.90
53844;DHT22;39744;53.314;5.710;2023-11-22T23:47:44;10.40;99.90
53844;DHT22;39744;53.314;5.710;2023-11-22T23:50:10;10.40;99.90
53844;DHT22;39744;53.314;5.710;2023-11-22T23:52:37;10.40;99.90
53844;DHT22;39744;53.314;5.710;2023-11-22T23:55:03;10.60;99.90
53844;DHT22;39744;53.314;5.710;2023-11-22T23:57:32;10.60;99.90
53844;DHT22;39744;53.314;5.710;2023-11-22T23:59:58;10.60;99.90
